Aérodrome :
LOGIN :

S'inscrire | Disclaimer

   EN    FR    IT 

 










Légende :    VFR   VFR Marginal   IFR   IFR Intensif   IFR Très Intensif
Visi : 
Plafond : 
>= 8 km
>= 3000ft
5 à 8 km
1000 à 3000 ft
1500m à 5 km
500 à 1000 ft
800 à 1500m
200 à 500 ft
< 800m
< 200 ft
Symboles :   Orages  Brouillard  Fortes neiges  Fortes précipitations  Vent > 20 kt
SIGMETs :   Divers  Orages  Givrage  Turbulence  Onde Orograph.  Cendres Volcan.







- Altitude de l'aérodrome : 215 ft
- Code IATA : TAR


LIBG - Grottaglie Arpt. Taranto

DERNIER METAR :
  • 201550Z 19010KT 8000 VCSH FEW010 SCT040 19/17 Q1005

METARs EXPIRÉS :
  • 201450Z 19013KT 8000 VCSH FEW010 SCT040 20/18 Q1004
  • 201350Z 19012KT 9000 FEW010 SCT040 20/18 Q1004

TAF TAF LIBG
Valide du 20 à 15h jusqu'au 21 à 00h UTC


201400Z 2015/2024 18016G28KT 9999 SCT020 SCT040
TEMPO 2015/2017 TSRA
Pas de NOTAMs connus pour ce terrain.
1 SIGMET publié pour la FIR Brindisi (LIBB) :
 
Turbulence forte
LIBB SIGMET 10 VALID 201515/201815 LIIB
LIBB BRINDISI FIR SEV TURB FCST SE OF LINE N4051 E01519 - N4207 E01647 FL240/360 MOV ESE NC=



MET'MAP, la Météo Aéronautique d'un coup d'oeil ! - Copyright ORBIFLY Décembre 2007 - Disclaimer

ORBIFLY MET'MAP TEAM :

Programmation & Développement : Alexandra Zaïnal
Conception & Développement : Baudouin d'Aumeries
Co-Programmation & Développement : Marc-Olivier Méhu
Soutien technique & logistique : Manuel Goepfert

Contact : metmap@orbifly.com




SOURCES & CREDITS :

   NOAA